DW2987 Weather Reports


Display with metric or nautical units.
time (UTC)temp
F
wind
direction
speed
MPH
gust
MPH
rain 1hr
in
rain 24hr
in
rain mn
in
humidity
%
barometer
mb
20260507024512 0 0.0 0.0 0.00 0.02 0.00 1008.3
20260507023005 0 0.0 0.0 0.00 0.02 0.00 1008.3
20260507021501 0 0.0 0.0 0.00 0.02 0.00 1008.2
20260507020109 0 0.0 0.0 0.00 0.02 0.00 1008.3
20260507014604 0 0.0 0.0 0.00 0.02 0.00 1008.1
20260507013051 0 0.0 0.0 0.00 0.02 0.00 1008.1
20260507011544 0 0.0 0.0 0.00 0.02 0.00 1008.0
20260507010040 0 0.0 0.0 0.00 0.02 0.00 1008.1
20260507004540 0 0.0 0.0 0.00 0.02 0.00 1008.0
20260507003032 0 0.0 0.0 0.00 0.02 0.00 1007.8
20260507001527 0 0.0 0.0 0.00 0.02 0.00 1007.7
20260507000026 0 0.0 0.0 0.00 0.02 0.00 1007.5
20260506234530 0 0.0 0.0 0.00 0.02 0.00 1007.6
20260506233014 0 0.0 0.0 0.00 0.02 0.00 1007.4
20260506231519 0 0.0 0.0 0.00 0.02 0.00 1007.3
20260506230004 0 0.0 0.0 0.00 0.02 0.00 1007.3
20260506224600 0 0.0 0.0 0.00 0.02 0.00 1007.3
20260506223058 0 0.0 0.0 0.00 0.02 0.00 1007.3
20260506221551 0 0.0 0.0 0.00 0.02 0.00 1007.3
20260506220049 0 0.0 0.0 0.00 0.02 0.00 1007.3
20260506214545 0 0.0 0.0 0.00 0.02 0.02 1007.4
20260506213059 0 0.0 0.0 0.00 0.02 0.02 1007.1
20260506211547 0 0.0 0.0 0.00 0.02 0.02 1007.2
20260506210034 0 0.0 0.0 0.00 0.02 0.02 1007.0
20260506204525 0 0.0 0.0 0.00 0.02 0.02 1006.8
20260506203026 59 29 0.0 8.0 0.00 0.02 0.02 77 1006.7
20260506201531 59 28 0.0 8.0 0.00 0.02 0.02 78 1006.5
20260506200019 59 46 3.0 12.0 0.00 0.02 0.02 78 1006.2
20260506194525 59 35 4.0 12.0 0.00 0.02 0.02 81 1006.1
20260506193018 59 13 7.0 13.0 0.00 0.02 0.02 82 1005.7
20260506191518 59 12 2.0 15.0 0.00 0.02 0.02 82 1005.3
20260506190018 60 14 6.0 11.0 0.00 0.02 0.02 81 1005.0
20260506184517 60 11 4.0 12.0 0.00 0.04 0.02 81 1004.6
20260506183027 61 25 3.0 10.0 0.00 0.04 0.02 79 1004.5
20260506181515 62 19 5.0 11.0 0.00 0.04 0.02 78 1004.0
20260506180015 62 33 3.0 14.0 0.00 0.04 0.02 74 1003.7
20260506174514 64 36 1.0 13.0 0.00 0.05 0.02 68 1003.4
20260506173013 64 44 5.0 14.0 0.00 0.05 0.02 67 1003.0
20260506171518 66 57 7.0 18.0 0.00 0.05 0.02 64 1002.9
20260506170012 66 22 4.0 12.0 0.00 0.05 0.02 58 1002.7
20260506164512 67 25 3.0 10.0 0.00 0.08 0.02 58 1002.6
20260506163013 68 22 3.0 11.0 0.00 0.08 0.02 57 1002.6
20260506161511 68 31 5.0 12.0 0.00 0.08 0.02 56 1002.6
20260506160012 69 23 5.0 11.0 0.00 0.08 0.02 56 1002.6
20260506154510 70 26 6.0 12.0 0.00 0.09 0.02 58 1002.4
20260506153011 70 34 3.0 15.0 0.00 0.09 0.02 60 1002.4
20260506151507 71 13 6.0 11.0 0.00 0.09 0.02 58 1002.6
20260506150007 71 17 6.0 14.0 0.00 0.09 0.02 58 1002.7
20260506144506 71 360 5.0 12.0 0.00 0.09 0.02 58 1002.7
20260506143012 71 360 6.0 13.0 0.00 0.09 0.02 58 1002.7
20260506141507 73 360 1.0 5.0 0.00 0.09 0.02 54 1002.8
20260506140002 72 355 1.0 5.0 0.00 0.09 0.02 54 1002.8
20260506134559 71 360 0.0 6.0 0.00 0.09 0.02 56 1002.9
20260506133059 72 355 4.0 11.0 0.00 0.09 0.02 55 1003.0
20260506131556 69 355 1.0 6.0 0.00 0.09 0.02 58 1003.1
20260506130100 70 355 0.0 9.0 0.00 0.09 0.02 57 1003.2
20260506124553 70 355 3.0 8.0 0.00 0.09 0.02 58 1003.2
20260506123052 69 355 0.0 5.0 0.00 0.09 0.02 58 1003.2
20260506121553 69 355 0.0 6.0 0.01 0.09 0.02 60 1003.3
20260506120049 69 355 1.0 8.0 0.01 0.09 0.02 60 1003.4
20260506114551 69 355 0.0 5.0 0.01 0.09 0.02 61 1003.4
20260506113045 68 355 0.0 5.0 0.01 0.09 0.02 62 1003.6
20260506111540 66 355 0.0 5.0 0.00 0.08 0.01 64 1003.8
20260506110038 66 355 0.0 2.0 0.00 0.08 0.01 67 1004.1
20260506104538 65 355 0.0 4.0 0.00 0.08 0.01 71 1004.1
20260506103040 63 355 0.0 0.0 0.01 0.08 0.01 74 1004.1
20260506101527 62 355 0.0 1.0 0.01 0.08 0.01 75 1004.2
20260506100023 60 355 0.0 4.0 0.01 0.08 0.01 79 1004.4
20260506094520 59 355 0.0 6.0 0.01 0.08 0.01 82 1004.6
20260506093017 57 355 0.0 6.0 0.00 0.07 0.00 85 1004.9
20260506091515 56 355 2.0 9.0 0.00 0.07 0.00 89 1004.9
20260506090016 0 0.0 0.0 0.00 0.07 0.00 1005.0
20260506084509 0 0.0 0.0 0.00 0.07 0.00 1005.0
20260506083011 0 0.0 0.0 0.00 0.07 0.00 1005.0
20260506081508 0 0.0 0.0 0.00 0.07 0.00 1005.0
20260506073002 0 0.0 0.0 0.00 0.07 0.00 1004.9
20260506071557 0 0.0 0.0 0.00 0.07 0.00 1004.7
20260506061555 0 0.0 0.0 0.00 0.07 0.00 1005.1
20260506044522 0 0.0 0.0 0.00 0.07 0.00 1005.5
20260506043026 0 0.0 0.0 0.00 0.07 0.00 1005.8
20260506041507 0 0.0 0.0 0.00 0.07 0.00 1005.4
20260506040003 0 0.0 0.0 0.00 0.07 0.00 1005.9
20260506034605 0 0.0 0.0 0.00 0.07 0.00 1005.8
20260506033055 0 0.0 0.0 0.00 0.07 0.00 1006.0
20260506031552 0 0.0 0.0 0.00 0.07 0.00 1006.1
20260506030052 0 0.0 0.0 0.00 0.07 0.00 1006.6